• images/banner/banner1.jpg
  • images/banner/banner2.jpg

Team Member Login

Aviation Weather

[source: ADDS]
METAR
EGVN 171050Z 08011KT 9000 HZ FEW012 08/05 Q1027 NOSIG =
TAF EGVN 171018Z 1712/1812 07012KT 9999 FEW012 PROB30 1720/1809 7000 HZ
TAF
TAF EGVN 171018Z 1712/1812 07012KT 9999 FEW012 PROB30 1720/1809 7000 HZ =